createdAt,value
2022-10-08T00:01:25.640Z,12.20
2022-10-08T00:03:54.478Z,15.38
2022-10-08T00:06:29.386Z,15.98
2022-10-08T00:09:05.141Z,14.83
2022-10-08T00:11:37.474Z,15.63
2022-10-08T00:14:06.606Z,12.20
2022-10-08T00:16:38.731Z,9.10
2022-10-08T00:19:14.784Z,11.03
2022-10-08T00:21:45.383Z,14.25
2022-10-08T00:24:18.080Z,9.78
2022-10-08T00:26:47.559Z,13.22
2022-10-08T00:29:19.463Z,10.68
2022-10-08T00:31:50.224Z,14.60
2022-10-08T00:34:22.848Z,11.97
2022-10-08T00:36:53.092Z,10.85
2022-10-08T00:39:23.625Z,9.73
2022-10-08T00:41:54.428Z,8.88
2022-10-08T00:44:52.527Z,8.83
2022-10-08T00:47:28.560Z,13.72
2022-10-08T00:50:01.767Z,7.50
2022-10-08T00:52:34.495Z,6.65
2022-10-08T00:55:06.310Z,8.20
2022-10-08T00:57:35.483Z,10.45
2022-10-08T01:00:12.097Z,8.90
2022-10-08T01:02:40.451Z,8.63
2022-10-08T01:05:09.964Z,9.30
2022-10-08T01:07:59.855Z,12.50
2022-10-08T01:10:44.237Z,10.98
2022-10-08T01:13:25.994Z,9.43
2022-10-08T01:16:14.161Z,17.50
2022-10-08T01:18:59.354Z,10.88
2022-10-08T01:21:47.710Z,14.33
2022-10-08T01:25:09.879Z,12.73
2022-10-08T01:27:45.307Z,14.35
2022-10-08T01:32:57.092Z,11.90
2022-10-08T01:35:32.744Z,12.68
2022-10-08T01:38:06.617Z,12.93
2022-10-08T01:40:38.313Z,9.48
2022-10-08T01:43:10.355Z,10.82
2022-10-08T01:45:56.531Z,10.55
2022-10-08T01:48:28.745Z,14.63
2022-10-08T01:51:03.806Z,11.70
2022-10-08T01:53:36.779Z,10.10
2022-10-08T01:56:08.784Z,9.45
2022-10-08T01:58:50.435Z,10.88
2022-10-08T02:01:41.623Z,9.38
2022-10-08T02:04:27.886Z,11.65
2022-10-08T02:06:57.924Z,9.95
2022-10-08T02:09:28.370Z,8.78
2022-10-08T02:11:57.125Z,11.12
2022-10-08T02:14:27.681Z,8.15
2022-10-08T02:17:06.909Z,9.45
2022-10-08T02:20:00.924Z,6.47
2022-10-08T02:22:36.392Z,13.35
2022-10-08T02:25:14.731Z,14.95
2022-10-08T02:27:56.709Z,8.28
2022-10-08T02:30:25.140Z,8.25
2022-10-08T02:33:00.873Z,12.98
2022-10-08T02:35:33.316Z,10.68
2022-10-08T02:38:11.499Z,8.40
2022-10-08T02:40:42.324Z,5.90
2022-10-08T02:43:15.704Z,6.15
2022-10-08T02:45:48.737Z,10.75
2022-10-08T02:48:32.414Z,8.45
2022-10-08T02:51:07.491Z,8.75
2022-10-08T02:53:38.094Z,6.25
2022-10-08T02:56:46.277Z,11.05
2022-10-08T02:59:17.829Z,6.87
2022-10-08T03:01:55.316Z,7.55
2022-10-08T03:04:34.541Z,9.83
2022-10-08T03:07:02.607Z,5.67
2022-10-08T03:09:39.848Z,8.35
2022-10-08T03:12:07.684Z,9.28
2022-10-08T03:14:42.748Z,9.78
2022-10-08T03:17:14.446Z,7.60
2022-10-08T03:19:42.038Z,7.33
2022-10-08T03:22:10.131Z,9.25
2022-10-08T03:24:37.497Z,6.67
2022-10-08T03:27:05.170Z,10.08
2022-10-08T03:29:32.855Z,5.75
2022-10-08T03:32:00.117Z,7.62
2022-10-08T03:34:27.751Z,7.40
2022-10-08T03:36:55.132Z,11.57
2022-10-08T03:39:22.805Z,8.18
2022-10-08T03:41:50.956Z,6.55
2022-10-08T03:44:18.666Z,7.67
2022-10-08T03:46:46.309Z,6.75
2022-10-08T03:49:13.998Z,6.95
2022-10-08T03:51:41.800Z,6.87
2022-10-08T03:54:09.492Z,7.78
2022-10-08T03:56:36.925Z,7.70
2022-10-08T03:59:04.376Z,10.00
2022-10-08T04:01:31.967Z,7.70
2022-10-08T04:03:59.954Z,6.08
2022-10-08T04:06:27.443Z,6.95
2022-10-08T04:08:56.871Z,10.38
2022-10-08T04:11:25.278Z,11.28
2022-10-08T04:13:52.734Z,6.20
2022-10-08T04:16:20.434Z,13.68
2022-10-08T04:18:48.617Z,11.57
2022-10-08T04:21:18.174Z,12.47
2022-10-08T04:23:49.843Z,12.20
2022-10-08T04:26:18.027Z,9.50
2022-10-08T04:28:47.590Z,8.78
2022-10-08T04:31:18.756Z,11.03
2022-10-08T04:33:47.472Z,12.80
2022-10-08T04:36:24.254Z,9.20
2022-10-08T04:38:52.078Z,12.37
2022-10-08T04:41:25.501Z,13.45
2022-10-08T04:43:56.793Z,13.03
2022-10-08T04:46:24.521Z,13.22
2022-10-08T04:48:54.821Z,10.55
2022-10-08T04:51:26.139Z,10.50
2022-10-08T04:53:55.351Z,11.60
2022-10-08T04:56:27.162Z,13.00
2022-10-08T04:58:56.312Z,15.13
2022-10-08T05:01:26.120Z,10.55
2022-10-08T05:03:55.976Z,7.83
2022-10-08T05:06:28.061Z,14.73
2022-10-08T05:08:59.709Z,12.13
2022-10-08T05:11:28.183Z,14.10
2022-10-08T05:13:58.079Z,11.28
2022-10-08T05:16:26.738Z,12.60
2022-10-08T05:18:56.181Z,15.88
2022-10-08T05:21:28.191Z,11.95
2022-10-08T05:24:07.024Z,5.78
2022-10-08T05:26:58.669Z,9.68
2022-10-08T05:29:10.987Z,8.65
2022-10-08T05:31:39.962Z,6.65
2022-10-08T05:34:07.751Z,9.88
2022-10-08T05:36:40.183Z,6.22
2022-10-08T05:39:07.794Z,8.28
2022-10-08T05:41:36.918Z,10.53
2022-10-08T05:44:06.070Z,8.23
2022-10-08T05:46:36.777Z,12.18
2022-10-08T05:49:08.145Z,14.05
2022-10-08T05:51:37.502Z,19.35
2022-10-08T05:54:05.323Z,15.58
2022-10-08T05:56:33.049Z,8.20
2022-10-08T05:59:01.035Z,7.53
2022-10-08T06:01:34.390Z,11.93
2022-10-08T06:04:09.077Z,13.50
2022-10-08T06:06:39.620Z,14.70
2022-10-08T06:09:12.400Z,11.60
2022-10-08T06:11:42.226Z,5.37
2022-10-08T06:14:16.616Z,7.33
2022-10-08T06:16:44.771Z,5.70
2022-10-08T06:19:14.339Z,6.72
2022-10-08T06:21:42.150Z,5.80
2022-10-08T06:24:11.657Z,5.22
2022-10-08T06:26:42.307Z,8.48
2022-10-08T06:29:18.464Z,13.65
2022-10-08T06:31:47.651Z,12.55
2022-10-08T06:34:15.923Z,12.35
2022-10-08T06:36:43.787Z,14.00
2022-10-08T06:39:13.950Z,13.18
2022-10-08T06:41:44.819Z,8.38
2022-10-08T06:44:15.003Z,9.73
2022-10-08T06:46:43.937Z,8.33
2022-10-08T06:49:12.755Z,11.12
2022-10-08T06:51:40.479Z,10.78
2022-10-08T06:54:08.821Z,9.28
2022-10-08T06:56:38.147Z,9.35
2022-10-08T06:59:07.360Z,9.33
2022-10-08T07:01:35.484Z,9.33
2022-10-08T07:04:06.239Z,13.50
2022-10-08T07:06:34.463Z,9.53
2022-10-08T07:09:04.002Z,7.22
2022-10-08T07:11:33.136Z,36.58
2022-10-08T07:14:00.971Z,32.03
2022-10-08T07:16:28.947Z,21.37
2022-10-08T07:18:57.946Z,75.83
2022-10-08T07:21:26.676Z,28.87
2022-10-08T07:23:54.876Z,44.18
2022-10-08T07:26:26.392Z,27.93
2022-10-08T07:28:59.904Z,12.68
2022-10-08T07:31:34.273Z,9.13
2022-10-08T07:34:06.092Z,14.35
2022-10-08T07:36:34.585Z,10.75
2022-10-08T07:39:15.816Z,10.18
2022-10-08T07:41:43.460Z,11.03
2022-10-08T07:44:12.426Z,12.25
2022-10-08T07:46:47.635Z,10.82
2022-10-08T07:49:17.745Z,30.88
2022-10-08T07:51:45.733Z,15.98
2022-10-08T07:54:18.076Z,19.73
2022-10-08T07:56:46.258Z,14.15
2022-10-08T07:59:15.367Z,19.73
2022-10-08T08:01:43.409Z,16.60
2022-10-08T08:04:12.165Z,10.93
2022-10-08T08:06:49.263Z,17.90
2022-10-08T08:09:18.038Z,21.10
2022-10-08T08:11:48.227Z,22.87
2022-10-08T08:14:16.364Z,17.37
2022-10-08T08:16:44.289Z,15.70
2022-10-08T08:19:12.078Z,14.73
2022-10-08T08:21:39.718Z,18.20
2022-10-08T08:24:13.207Z,13.70
2022-10-08T08:26:42.900Z,16.62
2022-10-08T08:29:14.678Z,10.08
2022-10-08T08:31:46.073Z,10.88
2022-10-08T08:34:20.587Z,10.35
2022-10-08T08:36:50.816Z,12.82
2022-10-08T08:39:27.649Z,10.35
2022-10-08T08:42:31.129Z,8.45
2022-10-08T08:45:03.287Z,14.33
2022-10-08T08:47:41.521Z,14.58
2022-10-08T08:50:35.274Z,17.95
2022-10-08T08:53:05.083Z,26.25
2022-10-08T08:55:43.287Z,10.28
2022-10-08T08:59:01.848Z,13.85
2022-10-08T09:01:46.827Z,10.43
2022-10-08T09:04:19.852Z,7.40
2022-10-08T09:06:50.834Z,8.85
2022-10-08T09:09:33.275Z,7.53
2022-10-08T09:12:21.185Z,10.82
2022-10-08T09:14:56.694Z,8.73
2022-10-08T09:17:35.739Z,6.05
2022-10-08T09:20:04.124Z,6.85
2022-10-08T09:22:39.107Z,5.53
2022-10-08T09:25:17.249Z,5.92
2022-10-08T09:27:57.303Z,5.40
2022-10-08T09:30:30.007Z,4.92
2022-10-08T09:33:02.287Z,4.10
2022-10-08T09:35:33.564Z,6.62
2022-10-08T09:38:05.629Z,4.15
2022-10-08T09:40:31.541Z,6.05
2022-10-08T09:43:16.706Z,3.37
2022-10-08T09:45:49.351Z,9.58
2022-10-08T09:48:25.609Z,4.95
2022-10-08T09:50:58.158Z,3.45
2022-10-08T09:53:48.649Z,4.45
2022-10-08T09:56:27.613Z,11.68
2022-10-08T09:59:01.973Z,5.87
2022-10-08T10:01:33.363Z,4.47
2022-10-08T10:04:02.835Z,10.93
2022-10-08T10:06:37.356Z,3.77
2022-10-08T10:09:28.328Z,5.55
2022-10-08T10:12:36.460Z,4.53
2022-10-08T10:15:23.988Z,3.72
2022-10-08T10:17:59.361Z,7.03
2022-10-08T10:20:50.789Z,3.47
2022-10-08T10:23:29.959Z,3.95
2022-10-08T10:26:14.040Z,2.50
2022-10-08T10:28:50.132Z,8.85
2022-10-08T10:31:28.010Z,2.60
2022-10-08T10:34:15.305Z,5.65
2022-10-08T10:36:53.671Z,4.67
2022-10-08T10:39:42.238Z,6.12
2022-10-08T10:42:50.798Z,6.92
2022-10-08T10:45:23.766Z,4.40
2022-10-08T10:47:54.503Z,3.42
2022-10-08T10:50:39.568Z,3.42
2022-10-08T10:53:28.506Z,5.50
2022-10-08T10:56:18.329Z,3.35
2022-10-08T10:59:22.995Z,6.72
2022-10-08T11:02:24.910Z,6.55
2022-10-08T11:05:19.531Z,6.35
2022-10-08T11:08:10.681Z,3.17
2022-10-08T11:11:18.692Z,3.58
2022-10-08T11:13:57.721Z,5.35
2022-10-08T11:16:42.814Z,2.35
2022-10-08T11:19:35.609Z,9.63
2022-10-08T11:22:26.858Z,9.15
2022-10-08T11:26:02.677Z,5.97
2022-10-08T11:28:24.040Z,5.90
2022-10-08T11:31:12.774Z,6.22
2022-10-08T11:33:41.783Z,8.30
2022-10-08T11:36:38.355Z,2.58
2022-10-08T11:39:23.281Z,4.20
2022-10-08T11:42:05.594Z,4.37
2022-10-08T11:44:33.469Z,3.75
2022-10-08T11:47:43.119Z,3.02
2022-10-08T11:50:30.520Z,5.35
2022-10-08T11:53:20.195Z,6.30
2022-10-08T11:55:55.322Z,5.87
2022-10-08T11:58:30.511Z,5.75
2022-10-08T12:01:10.166Z,7.47
2022-10-08T12:03:41.075Z,6.80
2022-10-08T12:06:28.240Z,9.68
2022-10-08T12:09:01.128Z,5.40
2022-10-08T12:11:37.335Z,5.90
2022-10-08T12:14:19.160Z,6.00
2022-10-08T12:17:07.536Z,2.58
2022-10-08T12:19:45.330Z,4.97
2022-10-08T12:22:27.634Z,3.70
2022-10-08T12:24:59.118Z,4.12
2022-10-08T12:27:34.477Z,2.22
2022-10-08T12:30:06.866Z,3.72
2022-10-08T12:32:45.832Z,7.80
2022-10-08T12:35:37.415Z,2.22
2022-10-08T12:38:20.908Z,7.42
2022-10-08T12:41:12.050Z,7.35
2022-10-08T12:44:10.316Z,5.47
2022-10-08T12:47:04.707Z,4.17
2022-10-08T12:49:56.408Z,8.73
2022-10-08T12:52:24.876Z,3.98
2022-10-08T12:55:01.151Z,4.28
2022-10-08T12:57:36.045Z,3.77
2022-10-08T13:00:10.814Z,2.42
2022-10-08T13:02:41.514Z,3.98
2022-10-08T13:05:30.723Z,2.30
2022-10-08T13:07:58.769Z,4.03
2022-10-08T13:10:29.230Z,3.02
2022-10-08T13:13:05.063Z,6.33
2022-10-08T13:15:35.619Z,11.90
2022-10-08T13:18:21.790Z,4.17
2022-10-08T13:21:04.556Z,5.47
2022-10-08T13:23:42.424Z,8.73
2022-10-08T13:26:44.935Z,5.67
2022-10-08T13:29:29.453Z,4.25
2022-10-08T13:32:15.647Z,3.65
2022-10-08T13:34:57.491Z,4.62
2022-10-08T13:37:32.500Z,5.22
2022-10-08T13:40:14.661Z,8.28
2022-10-08T13:42:49.205Z,10.32
2022-10-08T13:45:21.354Z,8.13
2022-10-08T13:47:51.188Z,5.83
2022-10-08T13:50:20.435Z,3.45
2022-10-08T13:52:54.254Z,7.87
2022-10-08T13:55:30.231Z,6.95
2022-10-08T13:58:01.524Z,9.90
2022-10-08T14:00:32.037Z,3.90
2022-10-08T14:03:00.540Z,5.92
2022-10-08T14:05:30.993Z,2.75
2022-10-08T14:08:04.398Z,4.58
2022-10-08T14:10:32.834Z,5.12
2022-10-08T14:13:00.293Z,3.52
2022-10-08T14:15:28.167Z,7.72
2022-10-08T14:17:55.728Z,4.30
2022-10-08T14:20:23.522Z,5.75
2022-10-08T14:22:51.504Z,3.70
2022-10-08T14:25:23.462Z,5.40
2022-10-08T14:27:51.721Z,3.72
2022-10-08T14:30:19.971Z,6.97
2022-10-08T14:32:47.570Z,4.33
2022-10-08T14:35:16.572Z,8.03
2022-10-08T14:37:44.160Z,6.47
2022-10-08T14:40:19.180Z,6.22
2022-10-08T14:42:47.336Z,5.22
2022-10-08T14:45:15.211Z,7.08
2022-10-08T14:47:42.881Z,6.42
2022-10-08T14:50:10.565Z,5.87
2022-10-08T14:52:44.690Z,5.78
2022-10-08T14:55:08.501Z,7.50
2022-10-08T14:57:35.924Z,5.47
2022-10-08T15:00:05.415Z,7.58
2022-10-08T15:02:36.096Z,9.05
2022-10-08T15:05:04.474Z,7.08
2022-10-08T15:07:32.367Z,5.55
2022-10-08T15:10:00.034Z,6.80
2022-10-08T15:12:27.684Z,10.30
2022-10-08T15:14:55.458Z,42.20
2022-10-08T15:17:24.933Z,60.00
2022-10-08T15:19:57.421Z,60.48
2022-10-08T15:22:29.865Z,49.50
2022-10-08T15:24:58.151Z,32.30
2022-10-08T15:27:25.830Z,37.85
2022-10-08T15:29:53.302Z,23.20
2022-10-08T15:32:24.477Z,19.70
2022-10-08T15:34:52.962Z,37.65
2022-10-08T15:37:21.155Z,38.05
2022-10-08T15:39:48.683Z,93.20
2022-10-08T15:42:17.126Z,249.20
2022-10-08T15:44:46.123Z,239.10
2022-10-08T15:47:15.735Z,187.37
2022-10-08T15:49:45.389Z,164.93
2022-10-08T15:52:16.833Z,154.23
2022-10-08T15:54:46.112Z,140.03
2022-10-08T15:57:17.138Z,140.52
2022-10-08T15:59:45.483Z,114.42
2022-10-08T16:02:17.212Z,116.80
2022-10-08T16:04:47.162Z,99.97
2022-10-08T16:07:16.374Z,86.20
2022-10-08T16:09:44.189Z,89.72
2022-10-08T16:12:12.267Z,62.98
2022-10-08T16:14:39.742Z,50.38
2022-10-08T16:17:10.391Z,57.78
2022-10-08T16:19:38.270Z,56.13
2022-10-08T16:22:07.167Z,39.20
2022-10-08T16:24:34.683Z,34.43
2022-10-08T16:27:02.629Z,25.20
2022-10-08T16:29:30.446Z,31.00
2022-10-08T16:31:58.460Z,39.45
2022-10-08T16:34:27.933Z,42.67
2022-10-08T16:36:57.636Z,29.00
2022-10-08T16:39:25.474Z,31.33
2022-10-08T16:41:53.162Z,23.45
2022-10-08T16:44:21.959Z,20.27
2022-10-08T16:46:52.633Z,26.20
2022-10-08T16:49:25.808Z,19.80
2022-10-08T16:52:01.861Z,19.40
2022-10-08T16:54:29.488Z,21.93
2022-10-08T16:56:57.574Z,30.65
2022-10-08T16:59:27.515Z,23.55
2022-10-08T17:01:58.094Z,27.15
2022-10-08T17:04:28.336Z,34.48
2022-10-08T17:06:56.659Z,31.12
2022-10-08T17:09:24.330Z,30.57
2022-10-08T17:11:52.037Z,32.35
2022-10-08T17:14:19.647Z,26.37
2022-10-08T17:16:49.162Z,24.25
2022-10-08T17:19:17.252Z,24.30
2022-10-08T17:21:45.030Z,29.52
2022-10-08T17:24:12.978Z,31.40
2022-10-08T17:26:41.543Z,27.60
2022-10-08T17:29:11.241Z,27.60
2022-10-08T17:31:39.979Z,22.52
2022-10-08T17:34:08.075Z,17.37
2022-10-08T17:36:39.276Z,21.80
2022-10-08T17:39:11.270Z,26.57
2022-10-08T17:41:40.878Z,23.10
2022-10-08T17:44:10.511Z,22.98
2022-10-08T17:46:45.410Z,26.55
2022-10-08T17:51:42.903Z,27.10
2022-10-08T17:54:14.893Z,29.42
2022-10-08T17:56:42.811Z,32.30
2022-10-08T17:59:14.369Z,30.68
2022-10-08T18:01:45.036Z,36.42
2022-10-08T18:04:15.062Z,33.42
2022-10-08T18:06:45.875Z,33.10
2022-10-08T18:09:18.031Z,31.40
2022-10-08T18:11:50.766Z,28.02
2022-10-08T18:14:19.826Z,27.37
2022-10-08T18:16:48.691Z,25.32
2022-10-08T18:19:17.427Z,22.50
2022-10-08T18:21:45.604Z,29.25
2022-10-08T18:24:13.823Z,28.55
2022-10-08T18:26:42.030Z,22.73
2022-10-08T18:29:13.102Z,26.15
2022-10-08T18:31:43.270Z,26.87
2022-10-08T18:34:16.934Z,31.02
2022-10-08T18:36:46.532Z,28.32
2022-10-08T18:39:18.441Z,32.80
2022-10-08T18:41:50.358Z,28.90
2022-10-08T18:44:21.979Z,26.87
2022-10-08T18:46:50.821Z,29.72
2022-10-08T18:49:23.393Z,26.37
2022-10-08T18:51:51.290Z,30.97
2022-10-08T18:54:19.188Z,28.42
2022-10-08T18:56:47.110Z,34.43
2022-10-08T18:59:17.048Z,36.42
2022-10-08T19:01:47.410Z,45.08
2022-10-08T19:04:19.561Z,46.42
2022-10-08T19:06:52.488Z,47.48
2022-10-08T19:09:21.119Z,49.42
2022-10-08T19:11:52.437Z,44.50
2022-10-08T19:14:22.507Z,41.68
2022-10-08T19:16:51.680Z,36.30
2022-10-08T19:19:24.770Z,34.40
2022-10-08T19:21:53.862Z,31.65
2022-10-08T19:24:24.655Z,35.40
2022-10-08T19:26:53.872Z,36.08
2022-10-08T19:29:27.432Z,34.63
2022-10-08T19:31:55.805Z,47.75
2022-10-08T19:34:26.594Z,33.95
2022-10-08T19:36:54.623Z,33.02
2022-10-08T19:39:26.998Z,38.42
2022-10-08T19:41:54.705Z,39.80
2022-10-08T19:44:22.338Z,43.45
2022-10-08T19:46:50.317Z,46.13
2022-10-08T19:49:18.815Z,43.75
2022-10-08T19:51:46.785Z,42.78
2022-10-08T19:54:14.940Z,46.13
2022-10-08T19:56:42.519Z,40.52
2022-10-08T19:59:11.341Z,39.08
2022-10-08T20:01:40.735Z,40.80
2022-10-08T20:04:09.838Z,40.83
2022-10-08T20:06:40.545Z,36.05
2022-10-08T20:09:12.470Z,44.33
2022-10-08T20:11:43.608Z,38.30
2022-10-08T20:14:13.514Z,39.58
2022-10-08T20:16:43.028Z,36.23
2022-10-08T20:19:18.834Z,38.42
2022-10-08T20:21:47.509Z,36.15
2022-10-08T20:24:17.269Z,31.33
2022-10-08T20:26:45.071Z,29.67
2022-10-08T20:29:21.616Z,35.50
2022-10-08T20:31:54.479Z,38.60
2022-10-08T20:34:30.034Z,33.70
2022-10-08T20:37:00.374Z,32.85
2022-10-08T20:39:28.407Z,34.15
2022-10-08T20:41:57.761Z,41.88
2022-10-08T20:44:25.402Z,34.38
2022-10-08T20:46:53.100Z,38.35
2022-10-08T20:49:20.793Z,60.67
2022-10-08T20:51:48.707Z,76.60
2022-10-08T20:54:17.254Z,83.30
2022-10-08T20:56:45.304Z,79.12
2022-10-08T20:59:18.478Z,57.00
2022-10-08T21:01:46.761Z,50.98
2022-10-08T21:04:14.415Z,42.23
2022-10-08T21:06:48.148Z,35.48
2022-10-08T21:09:18.554Z,32.30
2022-10-08T21:11:46.562Z,39.88
2022-10-08T21:14:22.748Z,32.70
2022-10-08T21:16:50.571Z,34.65
2022-10-08T21:19:23.413Z,39.15
2022-10-08T21:21:51.736Z,33.98
2022-10-08T21:24:19.560Z,39.73
2022-10-08T21:26:47.636Z,40.45
2022-10-08T21:29:15.480Z,38.65
2022-10-08T21:31:43.338Z,35.23
2022-10-08T21:34:12.751Z,39.95
2022-10-08T21:36:41.628Z,44.42
2022-10-08T21:39:16.183Z,45.73
2022-10-08T21:41:45.168Z,44.48
2022-10-08T21:44:14.077Z,41.30
2022-10-08T21:46:42.456Z,31.80
2022-10-08T21:49:23.504Z,28.05
2022-10-08T21:51:51.884Z,31.97
2022-10-08T21:54:19.588Z,34.15
2022-10-08T21:56:47.234Z,28.38
2022-10-08T21:59:16.161Z,26.35
2022-10-08T22:01:47.658Z,26.35
2022-10-08T22:04:19.616Z,28.35
2022-10-08T22:06:51.767Z,29.05
2022-10-08T22:09:26.155Z,27.07
2022-10-08T22:11:56.321Z,26.87
2022-10-08T22:14:24.351Z,28.27
2022-10-08T22:16:52.883Z,27.25
2022-10-08T22:19:20.815Z,25.50
2022-10-08T22:21:48.508Z,27.75
2022-10-08T22:24:16.534Z,27.13
2022-10-08T22:26:47.075Z,26.68
2022-10-08T22:29:15.808Z,27.13
2022-10-08T22:31:43.969Z,29.85
2022-10-08T22:34:12.504Z,24.47
2022-10-08T22:36:43.126Z,21.77
2022-10-08T22:39:11.272Z,26.05
2022-10-08T22:41:39.135Z,18.82
2022-10-08T22:44:07.122Z,20.88
2022-10-08T22:46:38.445Z,18.48
2022-10-08T22:49:10.154Z,19.57
2022-10-08T22:51:38.956Z,23.40
2022-10-08T22:54:07.409Z,19.85
2022-10-08T22:56:35.349Z,18.35
2022-10-08T22:59:04.186Z,24.65
2022-10-08T23:01:32.094Z,17.70
2022-10-08T23:03:59.973Z,18.45
2022-10-08T23:06:33.712Z,18.05
2022-10-08T23:09:05.949Z,15.13
2022-10-08T23:11:34.656Z,16.93
2022-10-08T23:14:02.803Z,15.63
2022-10-08T23:16:32.984Z,18.42
2022-10-08T23:19:08.115Z,13.85
2022-10-08T23:21:36.822Z,17.07
2022-10-08T23:24:05.616Z,19.15
2022-10-08T23:26:35.447Z,16.97
2022-10-08T23:29:04.047Z,20.60
2022-10-08T23:31:35.140Z,21.33
2022-10-08T23:34:04.916Z,26.60
2022-10-08T23:36:39.980Z,21.05
2022-10-08T23:39:14.046Z,21.07
2022-10-08T23:41:42.048Z,20.35
2022-10-08T23:44:11.547Z,19.12
2022-10-08T23:46:39.106Z,16.10
2022-10-08T23:49:06.914Z,14.23
2022-10-08T23:51:35.397Z,16.17
2022-10-08T23:54:03.189Z,16.52
2022-10-08T23:56:30.735Z,24.37
2022-10-08T23:58:59.575Z,20.82
